createdAt,value
2018-11-23T00:00:06.491Z,0.00
2018-11-23T00:01:06.487Z,0.00
2018-11-23T00:02:05.063Z,0.00
2018-11-23T00:03:06.974Z,0.00
2018-11-23T00:04:07.453Z,0.00
2018-11-23T00:05:07.469Z,0.00
2018-11-23T00:06:28.473Z,0.00
2018-11-23T00:07:05.908Z,0.00
2018-11-23T00:08:07.965Z,0.00
2018-11-23T00:09:09.981Z,0.00
2018-11-23T00:10:08.434Z,0.00
2018-11-23T00:11:08.471Z,0.00
2018-11-23T00:12:23.479Z,0.00
2018-11-23T00:13:08.478Z,0.00
2018-11-23T00:14:07.937Z,0.00
2018-11-23T00:15:07.973Z,0.00
2018-11-23T00:16:09.931Z,0.00
2018-11-23T00:17:14.968Z,0.00
2018-11-23T00:18:08.027Z,0.00
2018-11-23T00:19:08.425Z,0.00
2018-11-23T00:20:11.469Z,0.00
2018-11-23T00:21:08.960Z,0.00
2018-11-23T00:22:10.976Z,0.00
2018-11-23T00:23:09.937Z,0.00
2018-11-23T00:24:08.402Z,0.00
2018-11-23T00:25:08.598Z,0.00
2018-11-23T00:26:10.502Z,0.00
2018-11-23T00:27:08.969Z,0.00
2018-11-23T00:29:43.305Z,0.00
2018-11-23T00:30:43.805Z,0.00
2018-11-23T00:31:43.816Z,0.00
2018-11-23T00:32:44.754Z,0.00
2018-11-23T00:33:46.428Z,0.00
2018-11-23T00:34:44.285Z,0.00
2018-11-23T00:35:45.622Z,0.00
2018-11-23T00:36:45.856Z,0.00
2018-11-23T00:37:44.802Z,0.00
2018-11-23T00:38:44.817Z,0.00
2018-11-23T00:39:44.295Z,0.00
2018-11-23T00:40:47.344Z,0.00
2018-11-23T00:41:43.638Z,0.00
2018-11-23T00:43:00.933Z,0.00
2018-11-23T00:43:45.802Z,0.00
2018-11-23T00:44:46.197Z,0.00
2018-11-23T00:45:51.277Z,0.00
2018-11-23T00:46:48.333Z,0.00
2018-11-23T00:47:46.728Z,0.00
2018-11-23T00:48:47.766Z,0.00
2018-11-23T00:50:09.298Z,0.00
2018-11-23T00:50:52.761Z,0.00
2018-11-23T00:51:47.807Z,0.00
2018-11-23T00:52:48.310Z,0.00
2018-11-23T00:53:47.897Z,0.00
2018-11-23T00:54:46.675Z,0.00
2018-11-23T00:55:47.862Z,0.00
2018-11-23T00:56:48.759Z,0.00
2018-11-23T00:57:47.372Z,0.00
2018-11-23T00:58:48.305Z,0.00
2018-11-23T00:59:49.301Z,0.00
2018-11-23T01:00:51.805Z,0.00
2018-11-23T01:01:47.009Z,0.00
2018-11-23T01:02:47.255Z,0.00
2018-11-23T01:03:47.332Z,0.00
2018-11-23T01:04:48.273Z,0.00
2018-11-23T01:05:49.343Z,0.00
2018-11-23T01:06:47.928Z,0.00
2018-11-23T01:07:49.818Z,0.00
2018-11-23T01:08:51.756Z,0.00
2018-11-23T01:09:48.493Z,0.00
2018-11-23T01:10:49.298Z,0.00
2018-11-23T01:11:50.306Z,0.00
2018-11-23T01:12:53.765Z,0.00
2018-11-23T01:13:50.800Z,0.00
2018-11-23T01:14:49.256Z,0.00
2018-11-23T01:15:52.257Z,0.00
2018-11-23T01:16:51.605Z,0.00
2018-11-23T01:17:51.757Z,0.00
2018-11-23T01:18:50.775Z,0.00
2018-11-23T01:19:53.808Z,0.00
2018-11-23T01:20:52.255Z,0.00
2018-11-23T01:21:52.356Z,0.00
2018-11-23T01:22:52.269Z,0.00
2018-11-23T01:23:54.305Z,0.00
2018-11-23T01:24:52.298Z,0.00
2018-11-23T01:25:51.043Z,0.00
2018-11-23T01:26:53.762Z,0.00
2018-11-23T01:28:12.340Z,0.00
2018-11-23T01:28:59.313Z,0.00
2018-11-23T01:29:58.365Z,0.00
2018-11-23T01:30:53.802Z,0.00
2018-11-23T01:31:53.755Z,0.00
2018-11-23T01:32:53.817Z,0.00
2018-11-23T01:34:00.305Z,0.00
2018-11-23T01:34:54.328Z,0.00
2018-11-23T01:35:52.666Z,0.00
2018-11-23T01:36:54.835Z,0.00
2018-11-23T01:37:55.766Z,0.00
2018-11-23T01:38:55.778Z,0.00
2018-11-23T01:39:57.840Z,0.00
2018-11-23T01:40:56.758Z,0.00
2018-11-23T01:42:16.347Z,0.00
2018-11-23T01:42:53.959Z,0.00
2018-11-23T01:43:58.801Z,0.00
2018-11-23T01:44:56.804Z,0.00
2018-11-23T01:45:55.264Z,0.00
2018-11-23T01:46:55.249Z,0.00
2018-11-23T01:48:19.811Z,0.00
2018-11-23T01:48:58.851Z,0.00
2018-11-23T01:49:58.804Z,0.00
2018-11-23T01:51:10.800Z,0.00
2018-11-23T01:51:55.371Z,0.00
2018-11-23T01:52:59.304Z,0.00
2018-11-23T01:54:00.314Z,0.00
2018-11-23T01:54:56.409Z,0.00
2018-11-23T01:55:58.283Z,0.00
2018-11-23T01:56:59.810Z,0.00
2018-11-23T01:58:00.306Z,0.00
2018-11-23T01:58:59.297Z,0.00
2018-11-23T01:59:59.348Z,0.00
2018-11-23T02:00:56.887Z,0.00
2018-11-23T02:01:57.116Z,0.00
2018-11-23T02:02:57.306Z,0.00
2018-11-23T02:03:59.760Z,0.00
2018-11-23T02:04:59.554Z,0.00
2018-11-23T02:06:04.810Z,0.00
2018-11-23T02:06:59.137Z,0.00
2018-11-23T02:07:58.367Z,0.00
2018-11-23T02:09:09.315Z,0.00
2018-11-23T02:10:03.068Z,0.00
2018-11-23T02:11:00.008Z,0.00
2018-11-23T02:12:00.869Z,0.00
2018-11-23T02:13:06.825Z,0.00
2018-11-23T02:14:01.307Z,0.00
2018-11-23T02:15:01.670Z,0.00
2018-11-23T02:16:02.768Z,0.00
2018-11-23T02:17:01.826Z,0.00
2018-11-23T02:18:01.164Z,0.00
2018-11-23T02:19:02.333Z,0.00
2018-11-23T02:20:00.500Z,0.00
2018-11-23T02:21:01.712Z,0.00
2018-11-23T02:22:22.186Z,0.00
2018-11-23T02:23:02.979Z,0.00
2018-11-23T02:24:02.450Z,0.00
2018-11-23T02:25:05.502Z,0.00
2018-11-23T02:26:08.572Z,0.00
2018-11-23T02:27:03.860Z,0.00
2018-11-23T02:28:06.858Z,0.00
2018-11-23T02:29:06.585Z,0.00
2018-11-23T02:30:02.644Z,0.00
2018-11-23T02:31:03.415Z,0.00
2018-11-23T02:32:18.568Z,0.00
2018-11-23T02:33:05.249Z,0.00
2018-11-23T02:34:04.713Z,0.00
2018-11-23T02:35:03.116Z,0.00
2018-11-23T02:36:05.364Z,0.00
2018-11-23T02:37:03.526Z,0.00
2018-11-23T02:38:05.722Z,0.00
2018-11-23T02:39:06.729Z,0.00
2018-11-23T02:40:06.765Z,0.00
2018-11-23T02:41:21.256Z,0.00
2018-11-23T02:42:07.278Z,0.00
2018-11-23T02:43:06.309Z,0.00
2018-11-23T02:44:26.762Z,0.00
2018-11-23T02:45:06.812Z,0.00
2018-11-23T02:46:05.194Z,0.00
2018-11-23T02:47:07.308Z,0.00
2018-11-23T02:48:08.334Z,0.00
2018-11-23T02:49:05.671Z,0.00
2018-11-23T02:50:28.807Z,0.00
2018-11-23T02:51:30.848Z,0.00
2018-11-23T02:52:06.120Z,0.00
2018-11-23T02:53:08.306Z,0.00
2018-11-23T02:54:08.304Z,0.00
2018-11-23T02:55:10.287Z,0.00
2018-11-23T02:56:10.295Z,0.00
2018-11-23T02:57:13.799Z,0.00
2018-11-23T02:58:07.193Z,0.00
2018-11-23T02:59:07.551Z,0.00
2018-11-23T03:00:23.306Z,0.00
2018-11-23T03:01:16.840Z,0.00
2018-11-23T03:02:10.287Z,0.00
2018-11-23T03:03:07.880Z,0.00
2018-11-23T03:04:09.846Z,0.00
2018-11-23T03:05:16.819Z,0.00
2018-11-23T03:06:10.308Z,0.00
2018-11-23T03:07:10.345Z,0.00
2018-11-23T03:08:10.314Z,0.00
2018-11-23T03:09:15.803Z,0.00
2018-11-23T03:10:11.577Z,0.00
2018-11-23T03:11:09.352Z,0.00
2018-11-23T03:12:27.272Z,0.00
2018-11-23T03:13:09.716Z,0.00
2018-11-23T03:14:11.307Z,0.00
2018-11-23T03:15:11.757Z,0.00
2018-11-23T03:16:10.785Z,0.00
2018-11-23T03:17:12.321Z,0.00
2018-11-23T03:18:12.335Z,0.00
2018-11-23T03:19:18.302Z,0.00
2018-11-23T03:20:12.271Z,0.00
2018-11-23T03:21:12.811Z,0.00
2018-11-23T03:22:12.340Z,0.00
2018-11-23T03:23:17.784Z,0.00
2018-11-23T03:24:14.357Z,0.00
2018-11-23T03:25:13.013Z,0.00
2018-11-23T03:26:12.755Z,0.00
2018-11-23T03:28:49.463Z,0.00
2018-11-23T03:29:46.922Z,0.00
2018-11-23T03:30:44.383Z,0.00
2018-11-23T03:31:48.478Z,0.00
2018-11-23T03:32:45.429Z,0.00
2018-11-23T03:34:05.881Z,0.00
2018-11-23T03:34:46.999Z,0.00
2018-11-23T03:35:47.182Z,0.00
2018-11-23T03:37:08.939Z,0.00
2018-11-23T03:37:49.513Z,0.00
2018-11-23T03:38:45.843Z,0.00
2018-11-23T03:39:50.928Z,0.00
2018-11-23T03:40:49.428Z,0.00
2018-11-23T03:42:01.980Z,0.00
2018-11-23T03:42:46.929Z,0.00
2018-11-23T03:43:49.435Z,0.00
2018-11-23T03:44:48.478Z,0.00
2018-11-23T03:45:47.662Z,0.00
2018-11-23T03:46:48.977Z,0.00
2018-11-23T03:47:50.976Z,0.00
2018-11-23T03:48:55.949Z,0.00
2018-11-23T03:49:48.977Z,0.00
2018-11-23T03:50:51.937Z,0.00
2018-11-23T03:52:10.479Z,0.00
2018-11-23T03:52:56.313Z,0.00
2018-11-23T03:53:49.976Z,0.00
2018-11-23T03:54:51.930Z,0.00
2018-11-23T03:55:51.112Z,0.00
2018-11-23T03:56:55.481Z,0.00
2018-11-23T03:57:56.492Z,0.00
2018-11-23T03:58:54.429Z,0.00
2018-11-23T03:59:50.999Z,0.00
2018-11-23T04:01:05.941Z,0.00
2018-11-23T04:01:50.922Z,0.00
2018-11-23T04:02:49.541Z,0.00
2018-11-23T04:04:11.476Z,0.00
2018-11-23T04:04:51.928Z,0.00
2018-11-23T04:05:54.960Z,0.00
2018-11-23T04:07:00.986Z,0.00
2018-11-23T04:07:57.978Z,0.00
2018-11-23T04:08:52.438Z,0.00
2018-11-23T04:09:52.515Z,0.00
2018-11-23T04:10:50.909Z,0.00
2018-11-23T04:11:55.007Z,0.00
2018-11-23T04:13:14.988Z,0.00
2018-11-23T04:13:55.640Z,0.00
2018-11-23T04:14:51.656Z,0.00
2018-11-23T04:17:30.501Z,0.00
2018-11-23T04:18:25.372Z,0.00
2018-11-23T04:19:24.836Z,0.00
2018-11-23T04:20:27.021Z,0.00
2018-11-23T04:21:25.875Z,0.00
2018-11-23T04:22:27.871Z,0.00
2018-11-23T04:23:26.908Z,0.00
2018-11-23T04:24:29.406Z,0.00
2018-11-23T04:25:29.305Z,0.00
2018-11-23T04:26:29.414Z,0.00
2018-11-23T04:27:29.361Z,0.00
2018-11-23T04:28:29.392Z,0.00
2018-11-23T04:29:42.888Z,0.00
2018-11-23T04:30:28.860Z,0.00
2018-11-23T04:31:29.408Z,0.00
2018-11-23T04:32:30.453Z,0.00
2018-11-23T04:33:27.868Z,0.00
2018-11-23T04:34:30.912Z,0.00
2018-11-23T04:35:31.525Z,0.00
2018-11-23T04:36:30.362Z,0.00
2018-11-23T04:37:29.184Z,0.00
2018-11-23T04:38:34.420Z,0.00
2018-11-23T04:39:30.222Z,0.00
2018-11-23T04:40:31.379Z,0.00
2018-11-23T04:41:28.127Z,0.00
2018-11-23T04:42:29.280Z,0.00
2018-11-23T04:43:31.068Z,0.00
2018-11-23T04:44:28.750Z,0.00
2018-11-23T04:45:34.872Z,0.00
2018-11-23T04:46:35.964Z,0.00
2018-11-23T04:47:29.875Z,0.00
2018-11-23T04:48:36.409Z,0.00
2018-11-23T04:49:53.371Z,0.00
2018-11-23T04:50:30.822Z,0.00
2018-11-23T04:51:30.045Z,0.00
2018-11-23T04:52:32.948Z,0.00
2018-11-23T04:53:33.912Z,0.00
2018-11-23T04:54:30.612Z,0.00
2018-11-23T04:55:33.358Z,0.00
2018-11-23T04:56:32.906Z,0.00
2018-11-23T04:57:33.214Z,0.00
2018-11-23T04:58:34.927Z,0.00
2018-11-23T04:59:35.482Z,0.00
2018-11-23T05:00:33.446Z,0.00
2018-11-23T05:01:33.404Z,0.00
2018-11-23T05:02:31.962Z,0.00
2018-11-23T05:03:33.129Z,0.00
2018-11-23T05:04:32.396Z,0.00
2018-11-23T05:05:37.775Z,0.00
2018-11-23T05:06:33.747Z,0.00
2018-11-23T05:07:37.363Z,0.00
2018-11-23T05:08:35.134Z,0.00
2018-11-23T05:10:00.861Z,0.00
2018-11-23T05:10:33.378Z,0.00
2018-11-23T05:11:36.360Z,0.00
2018-11-23T05:12:35.383Z,0.00
2018-11-23T05:13:35.988Z,0.00
2018-11-23T05:14:57.866Z,0.00
2018-11-23T05:15:35.909Z,0.00
2018-11-23T05:16:36.363Z,0.00
2018-11-23T05:17:41.874Z,0.00
2018-11-23T05:18:36.535Z,0.00
2018-11-23T05:19:38.922Z,0.00
2018-11-23T05:20:38.367Z,0.00
2018-11-23T05:21:36.210Z,0.00
2018-11-23T05:22:36.409Z,0.00
2018-11-23T05:23:41.593Z,0.00
2018-11-23T05:24:51.405Z,0.00
2018-11-23T05:25:37.862Z,0.00
2018-11-23T05:26:42.142Z,0.00
2018-11-23T05:27:42.865Z,0.00
2018-11-23T05:28:39.870Z,0.00
2018-11-23T05:29:46.135Z,0.00
2018-11-23T05:30:38.975Z,0.00
2018-11-23T05:31:54.365Z,0.00
2018-11-23T05:32:38.579Z,0.00
2018-11-23T05:33:40.354Z,0.00
2018-11-23T05:34:51.397Z,0.00
2018-11-23T05:35:37.621Z,0.00
2018-11-23T05:36:40.360Z,0.00
2018-11-23T05:37:38.962Z,0.00
2018-11-23T05:39:03.866Z,0.00
2018-11-23T05:39:38.310Z,0.00
2018-11-23T05:40:50.403Z,0.00
2018-11-23T05:41:42.839Z,0.00
2018-11-23T05:43:08.379Z,0.00
2018-11-23T05:43:42.907Z,0.00
2018-11-23T05:44:41.857Z,0.00
2018-11-23T05:46:10.363Z,0.00
2018-11-23T05:46:42.410Z,0.00
2018-11-23T05:47:41.359Z,0.00
2018-11-23T05:48:40.011Z,0.00
2018-11-23T05:49:43.861Z,0.00
2018-11-23T05:50:47.858Z,0.00
2018-11-23T05:51:47.418Z,0.00
2018-11-23T05:52:43.869Z,0.00
2018-11-23T05:54:10.381Z,0.00
2018-11-23T05:54:43.406Z,0.00
2018-11-23T05:55:44.905Z,0.00
2018-11-23T05:57:05.915Z,0.00
2018-11-23T05:57:42.908Z,0.00
2018-11-23T05:58:42.908Z,0.00
2018-11-23T05:59:42.510Z,0.00
2018-11-23T06:00:45.403Z,0.00
2018-11-23T06:01:41.736Z,0.00
2018-11-23T06:02:44.904Z,0.00
2018-11-23T06:03:44.108Z,0.00
2018-11-23T06:04:42.591Z,0.00
2018-11-23T06:05:43.360Z,0.00
2018-11-23T06:08:19.177Z,0.00
2018-11-23T06:09:15.419Z,0.00
2018-11-23T06:10:18.165Z,0.00
2018-11-23T06:11:24.700Z,0.00
2018-11-23T06:12:17.046Z,0.00
2018-11-23T06:13:22.790Z,0.00
2018-11-23T06:14:24.212Z,0.00
2018-11-23T06:15:20.191Z,0.00
2018-11-23T06:16:21.477Z,0.00
2018-11-23T06:17:19.699Z,0.00
2018-11-23T06:18:18.889Z,0.00
2018-11-23T06:19:17.123Z,0.00
2018-11-23T06:20:18.714Z,0.00
2018-11-23T06:21:19.361Z,0.00
2018-11-23T06:22:26.644Z,0.00
2018-11-23T06:23:21.687Z,0.00
2018-11-23T06:24:20.650Z,0.00
2018-11-23T06:25:23.075Z,0.00
2018-11-23T06:26:20.247Z,0.00
2018-11-23T06:27:23.276Z,0.00
2018-11-23T06:28:19.683Z,0.00
2018-11-23T06:29:21.189Z,0.00
2018-11-23T06:30:21.673Z,0.00
2018-11-23T06:31:23.649Z,0.00
2018-11-23T06:32:23.642Z,0.00
2018-11-23T06:33:22.631Z,0.00
2018-11-23T06:34:21.204Z,0.00
2018-11-23T06:35:36.638Z,0.00
2018-11-23T06:36:24.144Z,0.00
2018-11-23T06:37:23.688Z,0.00
2018-11-23T06:38:35.697Z,0.00
2018-11-23T06:39:20.649Z,0.00
2018-11-23T06:40:21.794Z,0.00
2018-11-23T06:41:25.133Z,0.00
2018-11-23T06:42:20.536Z,0.00
2018-11-23T06:43:22.189Z,0.00
2018-11-23T06:45:54.372Z,5.63
2018-11-23T06:46:55.319Z,5.63
2018-11-23T06:47:56.953Z,5.63
2018-11-23T06:48:55.317Z,5.63
2018-11-23T06:49:54.336Z,5.63
2018-11-23T06:50:57.826Z,5.63
2018-11-23T06:51:56.381Z,5.63
2018-11-23T06:52:56.652Z,5.63
2018-11-23T06:53:56.892Z,5.63
2018-11-23T06:55:00.042Z,5.63
2018-11-23T06:55:59.816Z,5.63
2018-11-23T06:56:56.059Z,11.25
2018-11-23T06:58:11.359Z,11.25
2018-11-23T06:58:58.365Z,11.25
2018-11-23T06:59:56.415Z,11.25
2018-11-23T07:00:58.862Z,11.25
2018-11-23T07:01:56.931Z,11.25
2018-11-23T07:02:59.351Z,11.25
2018-11-23T07:04:00.103Z,11.25
2018-11-23T07:05:19.362Z,16.88
2018-11-23T07:05:58.326Z,16.88
2018-11-23T07:07:01.881Z,16.88
2018-11-23T07:07:58.594Z,16.88
2018-11-23T07:09:25.825Z,16.88
2018-11-23T07:09:59.812Z,22.50
2018-11-23T07:10:58.717Z,22.50
2018-11-23T07:12:04.379Z,22.50
2018-11-23T07:13:04.773Z,22.50
2018-11-23T07:14:03.922Z,28.13
2018-11-23T07:15:02.023Z,28.13
2018-11-23T07:15:58.866Z,28.13
2018-11-23T07:17:01.472Z,28.13
2018-11-23T07:17:57.575Z,28.13
2018-11-23T07:18:59.340Z,33.75
2018-11-23T07:20:00.874Z,33.75
2018-11-23T07:21:00.529Z,33.75
2018-11-23T07:21:58.385Z,33.75
2018-11-23T07:23:20.818Z,33.75
2018-11-23T07:24:02.331Z,33.75
2018-11-23T07:25:02.360Z,39.38
2018-11-23T07:26:02.858Z,39.38
2018-11-23T07:27:00.885Z,39.38
2018-11-23T07:28:15.069Z,39.38
2018-11-23T07:31:02.082Z,39.38
2018-11-23T07:31:48.031Z,45.00
2018-11-23T07:32:34.135Z,50.63
2018-11-23T07:33:34.651Z,50.63
2018-11-23T07:34:32.571Z,50.63
2018-11-23T07:35:32.770Z,50.63
2018-11-23T07:36:40.531Z,56.25
2018-11-23T07:37:35.459Z,56.25
2018-11-23T07:38:33.322Z,56.25
2018-11-23T07:39:36.525Z,61.88
2018-11-23T07:40:49.536Z,61.88
2018-11-23T07:41:33.734Z,61.88
2018-11-23T07:42:37.525Z,61.88
2018-11-23T07:43:53.034Z,61.88
2018-11-23T07:44:36.240Z,61.88
2018-11-23T07:45:34.492Z,67.50
2018-11-23T07:46:37.521Z,67.50
2018-11-23T07:47:38.533Z,67.50
2018-11-23T07:48:41.536Z,73.13
2018-11-23T07:49:36.997Z,73.13
2018-11-23T07:50:35.309Z,73.13
2018-11-23T07:51:39.289Z,78.75
2018-11-23T07:52:40.374Z,84.38
2018-11-23T07:53:47.755Z,90.00
2018-11-23T07:54:38.489Z,90.00
2018-11-23T07:55:35.967Z,95.63
2018-11-23T07:56:43.032Z,95.63
2018-11-23T07:57:38.027Z,95.63
2018-11-23T07:58:36.492Z,95.63
2018-11-23T07:59:36.694Z,95.63
2018-11-23T08:00:36.880Z,101.25
2018-11-23T08:01:41.025Z,95.63
2018-11-23T08:02:37.217Z,95.63
2018-11-23T08:03:44.040Z,101.25
2018-11-23T08:04:44.534Z,95.63
2018-11-23T08:05:37.720Z,95.63
2018-11-23T08:06:39.005Z,95.63
2018-11-23T08:07:40.070Z,95.63
2018-11-23T08:08:38.320Z,95.63
2018-11-23T08:09:40.030Z,95.63
2018-11-23T08:10:43.493Z,95.63
2018-11-23T08:11:40.534Z,101.25
2018-11-23T08:12:41.489Z,101.25
2018-11-23T08:13:40.353Z,106.88
2018-11-23T08:14:40.982Z,106.88
2018-11-23T08:15:42.501Z,106.88
2018-11-23T08:16:39.747Z,106.88
2018-11-23T08:17:43.006Z,106.88
2018-11-23T08:18:41.117Z,112.50
2018-11-23T08:19:47.473Z,112.50
2018-11-23T08:20:42.030Z,118.13
2018-11-23T08:21:40.578Z,118.13
2018-11-23T08:22:43.249Z,118.13
2018-11-23T08:23:43.589Z,123.75
2018-11-23T08:24:41.069Z,123.75
2018-11-23T08:25:49.025Z,123.75
2018-11-23T08:26:41.488Z,129.38
2018-11-23T08:27:41.692Z,129.38
2018-11-23T08:28:45.527Z,135.00
2018-11-23T08:29:42.096Z,135.00
2018-11-23T08:30:46.049Z,140.63
2018-11-23T08:31:46.025Z,146.25
2018-11-23T08:32:44.544Z,146.25
2018-11-23T08:33:42.773Z,146.25
2018-11-23T08:34:44.567Z,146.25
2018-11-23T08:35:45.027Z,151.88
2018-11-23T08:36:43.351Z,151.88
2018-11-23T08:37:45.540Z,151.88
2018-11-23T08:38:47.528Z,146.25
2018-11-23T08:39:46.487Z,146.25
2018-11-23T08:41:09.061Z,146.25
2018-11-23T08:41:46.042Z,151.88
2018-11-23T08:43:05.525Z,157.50
2018-11-23T08:43:45.539Z,168.75
2018-11-23T08:44:46.527Z,180.00
2018-11-23T08:46:00.527Z,196.88
2018-11-23T08:46:45.093Z,202.50
2018-11-23T08:47:47.989Z,202.50
2018-11-23T08:48:52.332Z,196.88
2018-11-23T08:49:49.535Z,202.50
2018-11-23T08:50:48.009Z,219.38
2018-11-23T08:51:46.854Z,225.00
2018-11-23T08:52:48.034Z,225.00
2018-11-23T08:53:50.473Z,230.63
2018-11-23T08:54:50.051Z,247.50
2018-11-23T08:55:47.493Z,247.50
2018-11-23T08:56:47.836Z,241.88
2018-11-23T08:57:49.026Z,247.50
2018-11-23T08:58:49.030Z,264.38
2018-11-23T08:59:49.044Z,264.38
2018-11-23T09:00:49.028Z,258.75
2018-11-23T09:02:11.493Z,258.75
2018-11-23T09:02:49.527Z,247.50
2018-11-23T09:03:47.982Z,247.50
2018-11-23T09:04:48.190Z,247.50
2018-11-23T09:07:25.003Z,270.00
2018-11-23T09:08:22.671Z,281.25
2018-11-23T09:09:24.529Z,281.25
2018-11-23T09:10:24.532Z,286.88
2018-11-23T09:11:23.477Z,286.88
2018-11-23T09:12:49.027Z,281.25
2018-11-23T09:13:23.836Z,303.75
2018-11-23T09:14:23.738Z,326.25
2018-11-23T09:15:37.519Z,337.50
2018-11-23T09:16:21.724Z,337.50
2018-11-23T09:17:21.923Z,315.00
2018-11-23T09:18:25.475Z,320.63
2018-11-23T09:19:22.323Z,337.50
2018-11-23T09:20:46.019Z,354.38
2018-11-23T09:21:23.971Z,371.25
2018-11-23T09:22:24.515Z,376.88
2018-11-23T09:23:24.525Z,371.25
2018-11-23T09:24:27.041Z,365.63
2018-11-23T09:25:26.276Z,371.25
2018-11-23T09:26:23.431Z,393.75
2018-11-23T09:27:27.720Z,399.38
2018-11-23T09:28:23.872Z,393.75
2018-11-23T09:29:46.884Z,405.00
2018-11-23T09:30:26.473Z,433.13
2018-11-23T09:31:47.104Z,427.50
2018-11-23T09:32:24.893Z,410.63
2018-11-23T09:33:28.521Z,388.13
2018-11-23T09:34:26.233Z,393.75
2018-11-23T09:35:26.038Z,399.38
2018-11-23T09:36:25.098Z,388.13
2018-11-23T09:37:29.223Z,393.75
2018-11-23T09:38:29.070Z,405.00
2018-11-23T09:39:29.024Z,382.50
2018-11-23T09:40:27.530Z,388.13
2018-11-23T09:41:28.510Z,410.63
2018-11-23T09:42:27.519Z,427.50
2018-11-23T09:43:30.087Z,455.63
2018-11-23T09:44:29.010Z,450.00
2018-11-23T09:45:35.491Z,450.00
2018-11-23T09:46:34.515Z,450.00
2018-11-23T09:47:29.089Z,461.25
2018-11-23T09:48:27.200Z,466.88
2018-11-23T09:49:35.049Z,478.13
2018-11-23T09:50:27.880Z,495.00
2018-11-23T09:51:27.752Z,528.75
2018-11-23T09:52:27.775Z,545.63
2018-11-23T09:53:28.992Z,562.50
2018-11-23T09:54:30.857Z,545.63
2018-11-23T09:55:31.480Z,551.25
2018-11-23T09:56:30.020Z,568.13
2018-11-23T09:57:29.491Z,556.88
2018-11-23T09:58:33.055Z,562.50
2018-11-23T09:59:31.968Z,579.38
2018-11-23T10:00:32.473Z,556.88
2018-11-23T10:01:34.015Z,568.13
2018-11-23T10:02:29.986Z,540.00
2018-11-23T10:03:30.858Z,495.00
2018-11-23T10:04:30.713Z,517.50
2018-11-23T10:06:46.117Z,551.25
2018-11-23T10:07:32.021Z,517.50
2018-11-23T10:08:33.504Z,511.88
2018-11-23T10:09:33.496Z,534.38
2018-11-23T10:10:35.188Z,517.50
2018-11-23T10:11:34.584Z,511.88
2018-11-23T10:12:47.972Z,534.38
2018-11-23T10:13:36.472Z,545.63
2018-11-23T10:14:38.084Z,540.00
2018-11-23T10:15:34.018Z,540.00
2018-11-23T10:16:37.472Z,534.38
2018-11-23T10:17:32.477Z,545.63
2018-11-23T10:18:33.815Z,545.63
2018-11-23T10:19:36.026Z,506.25
2018-11-23T10:20:36.021Z,478.13
2018-11-23T10:21:37.469Z,478.13
2018-11-23T10:22:35.490Z,483.75
2018-11-23T10:23:33.844Z,483.75
2018-11-23T10:24:33.505Z,500.63
2018-11-23T10:25:36.977Z,506.25
2018-11-23T10:26:41.037Z,506.25
2018-11-23T10:27:35.350Z,511.88
2018-11-23T10:28:35.520Z,478.13
2018-11-23T10:29:38.974Z,511.88
2018-11-23T10:30:38.194Z,517.50
2018-11-23T10:31:36.031Z,517.50
2018-11-23T10:32:38.054Z,528.75
2018-11-23T10:33:36.519Z,528.75
2018-11-23T10:34:36.582Z,528.75
2018-11-23T10:35:36.504Z,556.88
2018-11-23T10:36:35.128Z,573.75
2018-11-23T10:37:37.027Z,607.50
2018-11-23T10:38:36.488Z,601.88
2018-11-23T10:39:35.572Z,646.88
2018-11-23T10:40:35.804Z,624.38
2018-11-23T10:41:43.520Z,686.25
2018-11-23T10:42:39.971Z,675.00
2018-11-23T10:43:44.010Z,753.75
2018-11-23T10:44:38.547Z,776.25
2018-11-23T10:45:41.666Z,753.75
2018-11-23T10:46:40.529Z,720.00
2018-11-23T10:47:37.115Z,748.13
2018-11-23T10:48:37.322Z,815.63
2018-11-23T10:49:45.015Z,810.00
2018-11-23T10:50:37.725Z,765.00
2018-11-23T10:51:38.543Z,855.00
2018-11-23T10:52:42.019Z,894.38
2018-11-23T10:53:40.031Z,866.25
2018-11-23T10:54:41.477Z,804.38
2018-11-23T10:55:41.514Z,748.13
2018-11-23T10:56:40.526Z,742.50
2018-11-23T10:57:42.516Z,708.75
2018-11-23T10:58:40.642Z,748.13
2018-11-23T10:59:41.160Z,736.88
2018-11-23T11:00:41.371Z,658.13
2018-11-23T11:01:41.542Z,658.13
2018-11-23T11:02:43.518Z,686.25
2018-11-23T11:03:41.487Z,652.50
2018-11-23T11:04:46.181Z,669.38
2018-11-23T11:05:40.385Z,748.13
2018-11-23T11:06:41.545Z,663.75
2018-11-23T11:07:43.530Z,753.75
2018-11-23T11:08:41.496Z,736.88
2018-11-23T11:09:40.848Z,691.88
2018-11-23T11:10:50.025Z,691.88
2018-11-23T11:11:42.975Z,877.50
2018-11-23T11:12:45.020Z,1063.13
2018-11-23T11:13:41.597Z,1136.25
2018-11-23T11:14:41.798Z,1091.25
2018-11-23T11:15:45.520Z,1029.38
2018-11-23T11:16:46.035Z,1192.50
2018-11-23T11:17:46.029Z,1333.13
2018-11-23T11:18:45.991Z,1215.00
2018-11-23T11:19:46.520Z,1451.25
2018-11-23T11:20:46.515Z,1327.50
2018-11-23T11:21:43.901Z,1136.25
2018-11-23T11:24:17.596Z,1096.88
2018-11-23T11:25:17.630Z,1147.50
2018-11-23T11:26:16.083Z,1231.88
2018-11-23T11:27:18.153Z,1125.00
2018-11-23T11:28:16.639Z,1136.25
2018-11-23T11:29:23.635Z,1636.88
2018-11-23T11:30:15.949Z,1276.88
2018-11-23T11:31:16.173Z,1563.75
2018-11-23T11:32:18.152Z,1271.25
2018-11-23T11:33:18.131Z,1468.13
2018-11-23T11:34:18.156Z,1513.13
2018-11-23T11:35:18.636Z,1271.25
2018-11-23T11:36:18.639Z,1248.75
2018-11-23T11:37:18.657Z,1186.88
2018-11-23T11:38:21.124Z,1316.25
2018-11-23T11:39:18.219Z,1575.00
2018-11-23T11:40:19.146Z,1546.88
2018-11-23T11:41:19.627Z,1389.38
2018-11-23T11:42:20.623Z,1524.38
2018-11-23T11:43:17.959Z,1490.63
2018-11-23T11:44:20.140Z,1665.00
2018-11-23T11:45:20.129Z,1743.75
2018-11-23T11:46:18.452Z,2131.88
2018-11-23T11:47:20.646Z,1974.38
2018-11-23T11:48:20.636Z,1783.13
2018-11-23T11:49:20.663Z,1833.75
2018-11-23T11:50:19.277Z,1580.63
2018-11-23T11:51:21.145Z,2593.13
2018-11-23T11:52:19.693Z,2188.13
2018-11-23T11:53:19.767Z,2418.75
2018-11-23T11:54:21.634Z,1951.88
2018-11-23T11:55:21.134Z,2098.13
2018-11-23T11:56:23.131Z,1861.88
2018-11-23T11:57:20.478Z,2070.00
2018-11-23T11:58:20.688Z,1912.50
2018-11-23T11:59:22.629Z,1912.50
2018-11-23T12:00:21.097Z,2508.75
2018-11-23T12:01:21.325Z,1895.63
2018-11-23T12:02:21.433Z,1676.25
2018-11-23T12:03:21.666Z,1333.13
2018-11-23T12:04:23.007Z,1636.88
2018-11-23T12:05:22.106Z,1800.00
2018-11-23T12:06:22.302Z,1766.25
2018-11-23T12:07:22.516Z,1968.75
2018-11-23T12:08:22.727Z,1991.25
2018-11-23T12:09:22.936Z,1710.00
2018-11-23T12:10:23.145Z,1777.50
2018-11-23T12:11:25.149Z,2154.38
2018-11-23T12:12:23.482Z,2553.75
2018-11-23T12:13:23.738Z,2019.38
2018-11-23T12:14:23.920Z,1856.25
2018-11-23T12:15:24.130Z,1850.63
2018-11-23T12:16:26.174Z,2041.88
2018-11-23T12:17:24.789Z,2120.63
2018-11-23T12:18:24.668Z,2981.25
2018-11-23T12:19:24.762Z,2761.88
2018-11-23T12:20:24.967Z,2064.38
2018-11-23T12:21:25.184Z,1693.13
2018-11-23T12:22:25.394Z,1923.75
2018-11-23T12:23:27.129Z,2120.63
2018-11-23T12:24:25.719Z,1636.88
2018-11-23T12:25:27.626Z,1558.13
2018-11-23T12:26:26.126Z,1040.63
2018-11-23T12:27:29.459Z,894.38
2018-11-23T12:28:26.473Z,995.63
2018-11-23T12:29:26.691Z,1080.00
2018-11-23T12:30:26.908Z,860.63
2018-11-23T12:31:27.130Z,967.50
2018-11-23T12:32:27.344Z,866.25
2018-11-23T12:33:27.555Z,720.00
2018-11-23T12:34:29.641Z,669.38
2018-11-23T12:35:29.628Z,725.63
2018-11-23T12:36:28.085Z,770.63
2018-11-23T12:37:32.163Z,714.38
2018-11-23T12:38:28.503Z,635.63
2018-11-23T12:39:30.634Z,686.25
2018-11-23T12:40:28.844Z,613.13
2018-11-23T12:41:32.623Z,568.13
2018-11-23T12:42:29.216Z,551.25
2018-11-23T12:43:29.424Z,495.00
2018-11-23T12:44:37.124Z,444.38
2018-11-23T12:45:29.829Z,416.25
2018-11-23T12:46:32.649Z,388.13
2018-11-23T12:47:30.231Z,337.50
2018-11-23T12:48:32.124Z,315.00
2018-11-23T12:49:32.128Z,337.50
2018-11-23T12:50:30.758Z,376.88
2018-11-23T12:51:30.967Z,388.13
2018-11-23T12:52:32.083Z,376.88
2018-11-23T12:53:33.172Z,354.38
2018-11-23T12:54:40.080Z,331.88
2018-11-23T12:55:32.706Z,331.88
2018-11-23T12:56:31.807Z,348.75
2018-11-23T12:57:33.643Z,348.75
2018-11-23T12:58:32.459Z,371.25
2018-11-23T12:59:34.170Z,405.00
2018-11-23T13:00:33.505Z,410.63
2018-11-23T13:01:32.722Z,360.00
2018-11-23T13:02:34.675Z,348.75
2018-11-23T13:03:48.633Z,348.75
2018-11-23T13:04:33.262Z,348.75
2018-11-23T13:05:33.418Z,343.13
2018-11-23T13:07:02.135Z,337.50
2018-11-23T13:07:35.646Z,343.13
2018-11-23T13:08:35.643Z,331.88